Sunday, December 17, 2017, 4:34 PM EST
Back to Local

KTTN, Trenton Mercer County Airport

Location: Trenton, NJ, United States Lat: 40.283
Local Time: 4:34 PM EST (21:34 GMT) Lon: -74.817
Time Zone: US/Eastern Elev: 213 ft

Show me the last for .
Show Decoded

2017-12-17 15:53 METAR KTTN 172053Z 10003KT 10SM CLR 04/M02 A3022 RMK AO2 SLP229 T00391022 55004
                 =
2017-12-17 14:53 METAR KTTN 171953Z 00000KT 10SM CLR 04/M02 A3022 RMK AO2 SLP227 T00441022 =
2017-12-17 13:53 METAR KTTN 171853Z 00000KT 10SM CLR 04/M03 A3022 RMK AO2 SLP228 T00441028 =
2017-12-17 12:53 METAR KTTN 171753Z 00000KT 10SM CLR 04/M03 A3024 RMK AO2 SLP234 T00391028 10039
                 21011 58015 =
2017-12-17 11:53 METAR KTTN 171653Z 07003KT 10SM CLR 03/M04 A3027 RMK AO2 SLP244 T00331039 =
2017-12-17 10:53 METAR KTTN 171553Z 05004KT 10SM CLR 02/M04 A3028 RMK AO2 SLP251 T00221039 =
2017-12-17 09:53 METAR KTTN 171453Z 07005KT 10SM FEW050 01/M04 A3028 RMK AO2 SLP249 T00111044
                 51006 =
2017-12-17 08:53 METAR KTTN 171353Z 00000KT 10SM OVC050 00/M04 A3028 RMK AO2 SLP249 T00001044 =
2017-12-17 07:53 METAR KTTN 171253Z 02003KT 10SM BKN050 M01/M05 A3027 RMK AO2 SLP246 T10061050 =
2017-12-17 06:53 METAR KTTN 171153Z 02003KT 10SM FEW050 M01/M06 A3026 RMK AO2 SLP243 T10111056
                 10017 21011 53007 =
2017-12-17 05:53 METAR KTTN 171053Z 05004KT 10SM CLR M01/M05 A3023 RMK AO2 SLP235 T10111050 =
2017-12-17 04:53 METAR KTTN 170953Z AUTO 05004KT 10SM BKN055 00/M04 A3023 RMK AO2 SLP233
                 T00001044 =
2017-12-17 03:53 METAR KTTN 170853Z AUTO 02003KT 10SM OVC055 01/M03 A3024 RMK AO2 SLP235
                 T00111033 51015 =
2017-12-17 02:53 METAR KTTN 170753Z AUTO 00000KT 10SM OVC055 01/M04 A3023 RMK AO2 SLP233
                 T00111039 =
2017-12-17 01:53 METAR KTTN 170653Z AUTO 05004KT 10SM OVC055 01/M03 A3022 RMK AO2 SLP227
                 T00111028 =
2017-12-17 00:53 METAR KTTN 170553Z AUTO 05003KT 10SM OVC055 02/M03 A3019 RMK AO2 SLP220
                 T00171028 10039 20017 50012 =
2017-12-16 23:53 METAR KTTN 170453Z AUTO 02004KT 10SM OVC049 02/M03 A3020 RMK AO2 SLP221
                 T00221028 400441083 =
2017-12-16 22:53 METAR KTTN 170353Z AUTO 05004KT 10SM SCT046 BKN055 OVC080 02/M03 A3017 RMK AO2
                 SLP214 T00221028 =
2017-12-16 21:53 METAR KTTN 170253Z 23004KT 10SM OVC045 03/M04 A3016 RMK AO2 SLP209 T00331039
                 51020 =
2017-12-16 20:53 METAR KTTN 170153Z 26003KT 10SM OVC050 04/M04 A3014 RMK AO2 SLP204 T00391039 =
2017-12-16 19:53 METAR KTTN 170053Z 27004KT 10SM OVC055 04/M04 A3013 RMK AO2 SLP199 T00391039 =
2017-12-16 18:53 METAR KTTN 162353Z 27005KT 10SM FEW050 OVC065 04/M04 A3010 RMK AO2 SLP189
                 T00391044 10044 20039 53025 =
2017-12-16 17:53 METAR KTTN 162253Z 25004KT 10SM OVC065 04/M04 A3007 RMK AO2 SLP180 T00391044 =
2017-12-16 16:53 METAR KTTN 162153Z 23006KT 10SM OVC060 04/M04 A3004 RMK AO2 SLP169 T00391044 =

Support USWX by starting your Amazon purchase here.